createdAt,value
2022-11-07T00:02:15.557Z,21.55
2022-11-07T00:04:44.311Z,20.70
2022-11-07T00:07:12.679Z,21.52
2022-11-07T00:09:41.255Z,23.35
2022-11-07T00:12:09.566Z,23.27
2022-11-07T00:14:38.540Z,24.02
2022-11-07T00:17:08.331Z,22.80
2022-11-07T00:19:36.897Z,23.08
2022-11-07T00:22:05.323Z,21.98
2022-11-07T00:24:33.844Z,21.92
2022-11-07T00:27:02.351Z,20.50
2022-11-07T00:29:30.921Z,22.45
2022-11-07T00:31:59.823Z,21.20
2022-11-07T00:34:28.507Z,24.58
2022-11-07T00:36:56.812Z,23.25
2022-11-07T00:39:25.428Z,23.58
2022-11-07T00:41:53.708Z,23.48
2022-11-07T00:44:23.019Z,25.80
2022-11-07T00:46:51.258Z,26.55
2022-11-07T00:49:19.840Z,30.25
2022-11-07T00:51:48.172Z,32.85
2022-11-07T00:54:16.780Z,33.65
2022-11-07T00:56:45.095Z,34.67
2022-11-07T00:59:14.370Z,38.08
2022-11-07T01:01:42.830Z,40.88
2022-11-07T01:04:31.909Z,41.05
2022-11-07T01:07:01.776Z,31.17
2022-11-07T01:09:30.439Z,27.48
2022-11-07T01:11:58.755Z,23.80
2022-11-07T01:14:27.370Z,21.70
2022-11-07T01:16:55.664Z,21.15
2022-11-07T01:19:25.616Z,20.30
2022-11-07T01:21:54.474Z,20.23
2022-11-07T01:24:23.260Z,21.02
2022-11-07T01:26:52.055Z,20.23
2022-11-07T01:29:20.932Z,27.00
2022-11-07T01:31:49.142Z,26.50
2022-11-07T01:34:18.566Z,24.80
2022-11-07T01:36:47.198Z,23.00
2022-11-07T01:39:16.060Z,23.98
2022-11-07T01:41:44.351Z,25.88
2022-11-07T01:44:13.081Z,31.63
2022-11-07T01:46:45.520Z,29.33
2022-11-07T01:49:29.174Z,32.00
2022-11-07T01:52:08.555Z,27.80
2022-11-07T01:54:42.438Z,26.75
2022-11-07T01:57:17.336Z,24.67
2022-11-07T01:59:46.849Z,25.40
2022-11-07T02:02:15.389Z,25.50
2022-11-07T02:04:44.680Z,25.23
2022-11-07T02:07:21.656Z,22.42
2022-11-07T02:09:53.997Z,22.35
2022-11-07T02:12:24.609Z,20.20
2022-11-07T02:14:54.894Z,20.27
2022-11-07T02:17:23.330Z,20.92
2022-11-07T02:19:54.337Z,20.15
2022-11-07T02:22:41.256Z,21.40
2022-11-07T02:25:16.851Z,22.55
2022-11-07T02:27:48.217Z,25.33
2022-11-07T02:30:20.962Z,20.30
2022-11-07T02:32:49.776Z,20.05
2022-11-07T02:35:41.416Z,22.23
2022-11-07T02:38:14.589Z,25.42
2022-11-07T02:40:51.716Z,25.05
2022-11-07T02:43:23.378Z,24.17
2022-11-07T02:48:20.463Z,23.20
2022-11-07T02:50:48.950Z,25.60
2022-11-07T02:53:17.590Z,23.92
2022-11-07T02:55:46.409Z,25.55
2022-11-07T02:58:14.792Z,25.77
2022-11-07T03:00:43.351Z,27.17
2022-11-07T03:03:12.125Z,24.58
2022-11-07T03:05:41.006Z,21.77
2022-11-07T03:08:09.339Z,22.13
2022-11-07T03:10:38.140Z,21.02
2022-11-07T03:13:06.410Z,26.42
2022-11-07T03:15:35.034Z,25.98
2022-11-07T03:18:03.475Z,23.83
2022-11-07T03:20:32.056Z,23.77
2022-11-07T03:23:00.217Z,25.85
2022-11-07T03:25:29.131Z,25.60
2022-11-07T03:27:58.068Z,22.60
2022-11-07T03:30:26.733Z,22.35
2022-11-07T03:32:55.476Z,22.02
2022-11-07T03:35:24.129Z,22.73
2022-11-07T03:37:52.359Z,23.88
2022-11-07T03:40:21.100Z,23.88
2022-11-07T03:42:49.290Z,27.58
2022-11-07T03:45:18.085Z,24.92
2022-11-07T03:47:47.243Z,25.10
2022-11-07T03:50:19.587Z,26.23
